Time;durP1;ratioP1;P1;durP2;ratioP2;P2;SDS_P1;SDS_P2;PMS_P1;PMS_P2;Temp;Humidity;BMP_temperature;BMP_pressure;BME280_temperature;BME280_humidity;BME280_pressure;Samples;Min_cycle;Max_cycle;Signal;HPM_P1;HPM_P2
2024/04/14 00:01:38;;;;;;;2.90;2.10;;;;;;;17.03;65.56;99237.28;5492787;26;42898;-80
2024/04/14 00:04:08;;;;;;;3.67;1.97;;;;;;;17.05;65.25;99243.38;5493091;26;42786;-79
2024/04/14 00:06:37;;;;;;;3.37;2.23;;;;;;;16.94;65.50;99233.53;5492973;26;43421;-80
2024/04/14 00:09:04;;;;;;;3.30;2.70;;;;;;;16.97;65.48;99243.13;5492908;26;41190;-79
2024/04/14 00:11:33;;;;;;;2.50;2.30;;;;;;;16.86;65.25;99228.81;5493086;26;41623;-79
2024/04/14 00:13:59;;;;;;;2.47;2.20;;;;;;;16.66;65.36;99202.88;5492835;26;43767;-80
2024/04/14 00:16:29;;;;;;;2.23;1.87;;;;;;;16.83;65.18;99237.09;5492983;26;42508;-80
2024/04/14 00:18:55;;;;;;;2.47;1.90;;;;;;;16.68;65.41;99216.97;5491025;26;38481;-80
2024/04/14 00:21:27;;;;;;;1.97;1.87;;;;;;;16.58;65.21;99215.97;5492599;26;42636;-79
2024/04/14 00:23:53;;;;;;;1.97;1.77;;;;;;;16.66;65.12;99234.97;5492407;26;43997;-79
2024/04/14 00:26:22;;;;;;;2.00;1.80;;;;;;;16.53;65.74;99218.19;5492892;26;43296;-78
2024/04/14 00:28:50;;;;;;;3.10;1.80;;;;;;;16.53;65.97;99221.72;5491021;26;40875;-79
2024/04/14 00:31:19;;;;;;;2.00;1.80;;;;;;;16.53;66.33;99220.88;5492209;26;42992;-79
2024/04/14 00:33:45;;;;;;;2.33;2.13;;;;;;;16.34;66.82;99192.06;5492655;26;44203;-79
2024/04/14 00:36:14;;;;;;;2.47;2.27;;;;;;;16.41;66.56;99209.34;5492433;26;42312;-79
2024/04/14 00:38:43;;;;;;;2.13;1.93;;;;;;;16.29;66.47;99193.44;5460142;26;40691;-78
2024/04/14 00:41:12;;;;;;;3.93;2.40;;;;;;;16.32;66.39;99209.25;5490924;26;41707;-81
2024/04/14 00:43:39;;;;;;;2.63;2.10;;;;;;;16.36;66.63;99219.53;5459766;26;41767;-78
2024/04/14 00:46:09;;;;;;;2.10;2.00;;;;;;;16.24;66.89;99207.16;5489962;26;42087;-79
2024/04/14 00:48:35;;;;;;;3.53;2.10;;;;;;;16.11;66.92;99185.91;5492095;26;41084;-80
2024/04/14 00:51:06;;;;;;;4.83;2.83;;;;;;;16.17;67.12;99200.63;5492084;26;42399;-80
2024/04/14 00:53:33;;;;;;;2.87;2.17;;;;;;;16.24;67.79;99214.31;5490689;26;43755;-78
2024/04/14 00:56:05;;;;;;;2.50;2.17;;;;;;;16.21;67.41;99214.56;5491918;26;42236;-80
2024/04/14 00:58:32;;;;;;;2.70;2.30;;;;;;;16.17;68.01;99217.50;5491841;26;40039;-79
2024/04/14 01:01:02;;;;;;;2.33;2.13;;;;;;;16.03;67.96;99192.84;5491647;26;41844;-79
2024/04/14 01:03:28;;;;;;;3.20;2.20;;;;;;;16.03;67.71;99201.72;5491882;26;42733;-79
2024/04/14 01:05:59;;;;;;;5.63;2.53;;;;;;;16.00;67.75;99199.28;5491856;26;43112;-78
2024/04/14 01:08:26;;;;;;;2.60;2.33;;;;;;;15.98;68.72;99198.56;5492043;26;40639;-80
2024/04/14 01:10:55;;;;;;;4.30;2.23;;;;;;;15.93;68.21;99195.41;5491422;26;41548;-80
2024/04/14 01:13:24;;;;;;;2.03;1.83;;;;;;;16.03;67.60;99214.22;5492141;26;42764;-80
2024/04/14 01:15:53;;;;;;;2.73;2.43;;;;;;;15.96;67.65;99208.50;5493172;26;41366;-79
2024/04/14 01:18:20;;;;;;;2.43;2.23;;;;;;;15.80;68.26;99189.34;5494717;26;40965;-79
2024/04/14 01:20:49;;;;;;;1.87;1.77;;;;;;;15.77;67.94;99192.25;5493088;26;41428;-79
2024/04/14 01:23:15;;;;;;;2.30;1.83;;;;;;;15.64;67.74;99180.81;5493424;26;42665;-79
2024/04/14 01:25:47;;;;;;;2.40;2.20;;;;;;;15.70;67.63;99193.69;5494828;26;42108;-80
2024/04/14 01:28:15;;;;;;;3.37;2.50;;;;;;;15.68;67.92;99190.28;5495088;26;41221;-77
2024/04/14 01:30:44;;;;;;;2.67;2.30;;;;;;;15.70;68.66;99197.19;5494470;26;41731;-79
2024/04/14 01:33:11;;;;;;;3.43;2.47;;;;;;;15.68;69.49;99192.97;5492790;26;41375;-78
2024/04/14 01:35:40;;;;;;;2.27;2.07;;;;;;;15.54;69.73;99174.47;5494573;26;42218;-79
2024/04/14 01:38:06;;;;;;;2.43;2.23;;;;;;;15.68;69.99;99192.97;5492765;26;40627;-80
2024/04/14 01:40:35;;;;;;;4.57;2.80;;;;;;;15.66;69.78;99200.25;5494582;26;42695;-79
2024/04/14 01:43:05;;;;;;;3.87;2.60;;;;;;;15.65;70.24;99194.03;5494793;26;42734;-80
2024/04/14 01:45:34;;;;;;;2.53;2.30;;;;;;;15.65;69.80;99193.19;5494263;26;42198;-79
2024/04/14 01:48:01;;;;;;;2.33;2.13;;;;;;;15.55;69.84;99171.72;5492608;26;39255;-79
2024/04/14 01:50:30;;;;;;;2.27;2.07;;;;;;;15.59;70.02;99181.16;5462128;26;41908;-79
2024/04/14 01:52:56;;;;;;;3.93;2.20;;;;;;;15.48;69.58;99165.09;5493007;26;42680;-79
2024/04/14 01:55:25;;;;;;;2.33;2.10;;;;;;;15.57;69.70;99177.78;5494500;26;42513;-79
2024/04/14 01:57:53;;;;;;;3.73;2.20;;;;;;;15.52;70.09;99176.41;5492973;26;39949;-79
2024/04/14 02:00:25;;;;;;;1.87;1.77;;;;;;;15.54;70.78;99174.47;5494138;26;41843;-81
2024/04/14 02:02:54;;;;;;;1.87;1.73;;;;;;;15.37;71.43;99147.25;5492924;26;44067;-77
2024/04/14 02:05:23;;;;;;;4.77;2.20;;;;;;;15.49;71.77;99171.28;5494307;26;43141;-78
2024/04/14 02:07:51;;;;;;;3.30;1.80;;;;;;;15.49;72.28;99176.63;5462289;26;41182;-78
2024/04/14 02:10:20;;;;;;;2.90;1.93;;;;;;;15.31;72.13;99146.88;5492548;26;40032;-80
2024/04/14 02:12:47;;;;;;;2.00;1.60;;;;;;;15.48;71.75;99174.91;5492749;26;42878;-80
2024/04/14 02:15:16;;;;;;;3.87;1.93;;;;;;;15.49;72.45;99176.63;5494250;26;42838;-80
2024/04/14 02:17:45;;;;;;;2.13;1.90;;;;;;;15.36;72.38;99156.22;5492900;26;40078;-78
2024/04/14 02:20:15;;;;;;;2.23;2.00;;;;;;;15.42;72.36;99166.44;5491657;26;41810;-79
2024/04/14 02:22:41;;;;;;;2.67;2.47;;;;;;;15.48;72.05;99180.25;5460288;26;41771;-78
2024/04/14 02:25:10;;;;;;;1.70;1.60;;;;;;;15.45;71.95;99176.84;5490664;26;42215;-80
2024/04/14 02:27:37;;;;;;;3.40;2.20;;;;;;;15.38;72.81;99159.63;5492646;26;40734;-80
2024/04/14 02:30:06;;;;;;;3.90;2.20;;;;;;;15.43;73.09;99165.47;5492332;26;41742;-79
2024/04/14 02:32:33;;;;;;;2.73;2.10;;;;;;;15.42;72.68;99171.78;5492535;26;42634;-78
2024/04/14 02:35:06;;;;;;;3.23;2.03;;;;;;;15.42;72.90;99171.78;5492979;26;42400;-79
2024/04/14 02:37:32;;;;;;;2.40;2.20;;;;;;;15.28;73.06;99144.44;5494487;26;41035;-78
2024/04/14 02:40:02;;;;;;;2.33;1.60;;;;;;;15.34;72.62;99166.16;5491972;26;41865;-81
2024/04/14 02:42:34;;;;;;;2.07;1.90;;;;;;;15.39;72.32;99177.34;5493861;26;44005;-78
2024/04/14 02:45:03;;;;;;;2.07;1.80;;;;;;;15.31;71.76;99173.56;5493673;26;42447;-78
2024/04/14 02:47:29;;;;;;;2.33;2.07;;;;;;;15.19;72.10;99164.69;5492505;26;40033;-78
2024/04/14 02:49:59;;;;;;;1.83;1.60;;;;;;;15.22;72.57;99180.44;5493817;26;41893;-79
2024/04/14 02:52:28;;;;;;;1.97;1.60;;;;;;;15.29;72.70;99186.19;5493976;26;42863;-78
2024/04/14 02:54:57;;;;;;;1.70;1.60;;;;;;;15.18;72.58;99172.81;5492044;26;40780;-80
2024/04/14 02:57:24;;;;;;;3.10;2.00;;;;;;;15.23;72.75;99182.16;5494068;26;40069;-80
2024/04/14 02:59:53;;;;;;;2.73;2.20;;;;;;;15.18;72.51;99181.66;5493607;26;41565;-78
2024/04/14 03:02:19;;;;;;;1.53;1.40;;;;;;;15.16;72.50;99180.94;5493878;26;44103;-81
2024/04/14 03:04:50;;;;;;;1.87;1.67;;;;;;;15.15;72.71;99179.22;5493736;26;42133;-79
2024/04/14 03:07:16;;;;;;;1.80;1.70;;;;;;;15.06;72.59;99174.59;5494042;26;41281;-80
2024/04/14 03:09:48;;;;;;;3.07;1.83;;;;;;;15.05;72.38;99167.56;5491717;26;42020;-79
2024/04/14 03:12:15;;;;;;;2.57;2.13;;;;;;;15.10;72.40;99184.03;5492495;26;42785;-79
2024/04/14 03:14:44;;;;;;;2.33;1.67;;;;;;;15.07;72.09;99186.97;5491519;26;42166;-80
2024/04/14 03:17:10;;;;;;;2.63;2.27;;;;;;;15.01;72.08;99176.75;5493959;26;41072;-81
2024/04/14 03:19:39;;;;;;;1.70;1.60;;;;;;;14.91;71.90;99173.06;5493688;26;41867;-81
2024/04/14 03:22:06;;;;;;;1.80;1.70;;;;;;;14.92;71.81;99182.78;5494158;26;43742;-78
2024/04/14 03:24:35;;;;;;;1.63;1.40;;;;;;;14.86;71.72;99172.56;5491874;26;42109;-79
2024/04/14 03:27:04;;;;;;;1.80;1.60;;;;;;;14.74;71.70;99175.19;5492271;26;41276;-78
2024/04/14 03:29:33;;;;;;;1.70;1.60;;;;;;;14.81;71.71;99180.06;5493297;26;41716;-78
2024/04/14 03:32:00;;;;;;;2.60;2.20;;;;;;;14.87;71.51;99195.59;5491789;26;43954;-78
2024/04/14 03:34:29;;;;;;;2.47;1.90;;;;;;;14.69;72.01;99177.34;5493135;26;42308;-80
2024/04/14 03:36:58;;;;;;;2.67;1.90;;;;;;;14.54;71.97;99140.31;5493083;26;41453;-80
2024/04/14 03:39:27;;;;;;;2.80;2.07;;;;;;;14.76;72.95;99177.72;5493038;26;41701;-79
2024/04/14 03:41:57;;;;;;;2.97;1.70;;;;;;;14.65;72.93;99165.22;5493291;26;43984;-78
2024/04/14 03:44:32;;;;;;;2.60;1.83;;;;;;;14.63;73.42;99156.47;5460938;26;42235;-80
2024/04/14 03:47:02;;;;;;;1.73;1.63;;;;;;;14.72;73.07;99179.78;5491858;26;41240;-81
2024/04/14 03:49:28;;;;;;;3.53;2.00;;;;;;;14.59;73.24;99154.13;5493022;26;42769;-79
2024/04/14 03:51:57;;;;;;;2.40;2.20;;;;;;;14.52;73.03;99142.25;5491700;26;43426;-80
2024/04/14 03:54:24;;;;;;;2.80;1.97;;;;;;;14.53;73.62;99150.13;5493017;26;43663;-79
2024/04/14 03:56:53;;;;;;;2.23;2.03;;;;;;;14.65;73.42;99170.53;5491814;26;39932;-80
2024/04/14 03:59:19;;;;;;;1.90;1.67;;;;;;;14.54;73.42;99157.16;5491525;26;41544;-78
2024/04/14 04:01:51;;;;;;;1.70;1.60;;;;;;;14.61;73.20;99166.38;5492842;26;43038;-78
2024/04/14 04:04:17;;;;;;;1.97;1.77;;;;;;;14.58;73.12;99179.97;5493032;26;42320;-80
2024/04/14 04:06:46;;;;;;;2.80;1.60;;;;;;;14.35;73.00;99149.63;5493309;26;42157;-79
2024/04/14 04:09:14;;;;;;;1.93;1.83;;;;;;;14.38;73.38;99164.53;5491232;26;41638;-78
2024/04/14 04:11:43;;;;;;;2.47;1.60;;;;;;;14.48;73.59;99178.91;5493152;26;43348;-79
2024/04/14 04:14:10;;;;;;;2.20;2.00;;;;;;;14.30;73.43;99164.25;5493025;26;42955;-80
2024/04/14 04:16:39;;;;;;;1.90;1.70;;;;;;;14.43;73.43;99199.75;5491154;26;38967;-78
2024/04/14 04:19:08;;;;;;;2.00;1.80;;;;;;;14.37;73.34;99194.81;5460366;26;41399;-78
2024/04/14 04:21:38;;;;;;;2.47;2.00;;;;;;;14.21;73.12;99175.59;5492634;26;43010;-80
2024/04/14 04:24:04;;;;;;;4.00;1.90;;;;;;;14.26;72.89;99189.41;5460460;26;41890;-78
2024/04/14 04:26:33;;;;;;;2.07;1.83;;;;;;;14.27;73.02;99199.09;5492850;26;40093;-78
2024/04/14 04:29:00;;;;;;;2.00;1.80;;;;;;;14.12;73.17;99176.22;5492680;26;41725;-80
2024/04/14 04:31:29;;;;;;;3.23;1.97;;;;;;;14.20;73.78;99196.03;5490583;26;43056;-80
2024/04/14 04:33:56;;;;;;;2.33;2.13;;;;;;;14.18;73.64;99197.09;5490418;26;42182;-78
2024/04/14 04:36:27;;;;;;;3.93;2.53;;;;;;;14.20;74.36;99216.50;5492633;26;40144;-78
2024/04/14 04:38:55;;;;;;;2.50;2.30;;;;;;;14.18;74.82;99202.44;5492599;26;41914;-78
2024/04/14 04:41:24;;;;;;;2.17;1.97;;;;;;;14.14;74.27;99198.28;5492248;26;42876;-79
2024/04/14 04:43:51;;;;;;;2.83;2.30;;;;;;;14.19;74.72;99202.34;5491904;26;42232;-78
2024/04/14 04:46:20;;;;;;;4.17;2.43;;;;;;;14.20;75.61;99200.53;5492046;26;39578;-79
2024/04/14 04:48:47;;;;;;;2.40;2.20;;;;;;;14.13;75.45;99189.44;5494942;26;42990;-80
2024/04/14 04:51:16;;;;;;;3.47;2.47;;;;;;;14.16;75.91;99186.56;5495442;26;44343;-81
2024/04/14 04:53:45;;;;;;;4.23;2.70;;;;;;;14.25;76.29;99203.69;5462597;26;41267;-78
2024/04/14 04:56:14;;;;;;;3.00;2.70;;;;;;;14.27;75.76;99202.63;5495197;26;41017;-79
2024/04/14 04:58:41;;;;;;;3.17;2.87;;;;;;;14.13;75.88;99177.94;5495146;26;41779;-80
2024/04/14 05:01:12;;;;;;;2.40;2.03;;;;;;;14.27;75.48;99196.44;5494542;26;42986;-80
2024/04/14 05:03:38;;;;;;;2.60;2.17;;;;;;;14.30;75.65;99186.41;5493681;26;43257;-79
2024/04/14 05:06:08;;;;;;;2.73;2.33;;;;;;;14.46;75.47;99206.66;5493557;26;38507;-77
2024/04/14 05:08:35;;;;;;;2.37;2.17;;;;;;;14.52;75.66;99203.53;5493462;26;41296;-78
2024/04/14 05:11:07;;;;;;;2.63;2.30;;;;;;;14.36;76.70;99169.13;5493210;26;42891;-78
2024/04/14 05:13:33;;;;;;;2.37;1.87;;;;;;;14.52;76.43;99191.06;5495316;26;42224;-79
2024/04/14 05:16:03;;;;;;;2.97;2.33;;;;;;;14.77;76.27;99211.44;5493083;26;38619;-79
2024/04/14 05:18:29;;;;;;;2.43;2.07;;;;;;;14.79;75.92;99185.50;5494806;26;41769;-78
2024/04/14 05:20:59;;;;;;;3.07;2.17;;;;;;;15.05;76.14;99216.41;5494662;26;43606;-79
2024/04/14 05:23:25;;;;;;;2.97;2.27;;;;;;;15.10;75.88;99205.38;5495022;26;43262;-80
2024/04/14 05:25:55;;;;;;;2.87;2.27;;;;;;;15.24;75.62;99220.34;5493204;26;38671;-78
2024/04/14 05:28:24;;;;;;;2.10;1.90;;;;;;;15.34;74.92;99216.00;5502120;26;42273;-78
2024/04/14 05:30:53;;;;;;;2.70;2.10;;;;;;;15.54;74.40;99230.53;5492994;26;42580;-78
2024/04/14 05:33:19;;;;;;;3.10;2.03;;;;;;;15.55;74.16;99219.75;5495157;26;43480;-78
2024/04/14 05:35:56;;;;;;;2.17;2.00;;;;;;;15.64;73.94;99207.50;5493385;26;40215;-80
2024/04/14 05:38:22;;;;;;;2.67;1.70;;;;;;;15.85;73.35;99221.00;5493220;26;43021;-77
2024/04/14 05:40:52;;;;;;;2.13;1.70;;;;;;;15.98;73.31;99222.59;5494439;26;43801;-78
2024/04/14 05:43:18;;;;;;;1.90;1.80;;;;;;;16.19;73.08;99233.41;5492802;26;42241;-80
2024/04/14 05:45:50;;;;;;;2.40;2.20;;;;;;;16.40;72.83;99242.38;5492452;26;41511;-79
2024/04/14 05:48:16;;;;;;;2.13;1.93;;;;;;;16.31;72.35;99208.38;5462714;26;40398;-79
2024/04/14 05:50:45;;;;;;;2.20;2.00;;;;;;;16.45;72.27;99213.44;5494362;26;42801;-80
2024/04/14 05:53:12;;;;;;;4.00;2.27;;;;;;;16.75;71.82;99244.06;5493289;26;41218;-78
2024/04/14 05:55:41;;;;;;;2.07;1.93;;;;;;;16.69;71.55;99228.53;5492703;26;39882;-79
2024/04/14 05:58:08;;;;;;;2.40;2.20;;;;;;;16.85;71.32;99240.50;5494195;26;42569;-77
2024/04/14 06:00:38;;;;;;;1.97;1.70;;;;;;;17.09;70.99;99264.38;5462076;26;43286;-77
2024/04/14 06:03:07;;;;;;;2.30;1.97;;;;;;;17.22;70.57;99266.88;5492840;26;41613;-78
2024/04/14 06:05:37;;;;;;;2.47;2.27;;;;;;;17.32;69.88;99248.22;5492433;26;41239;-79
2024/04/14 06:08:04;;;;;;;2.53;2.33;;;;;;;17.58;69.43;99271.84;5495256;26;42748;-80
2024/04/14 06:10:33;;;;;;;2.90;2.20;;;;;;;17.68;69.24;99271.94;5495052;26;44237;-78
2024/04/14 06:12:59;;;;;;;2.73;1.87;;;;;;;17.73;68.63;99264.38;5494931;26;43216;-79
2024/04/14 06:15:29;;;;;;;2.20;2.00;;;;;;;17.87;68.76;99253.31;5492517;26;38885;-79
2024/04/14 06:17:56;;;;;;;1.60;1.50;;;;;;;18.13;67.95;99260.94;5494467;26;42565;-79
2024/04/14 06:20:27;;;;;;;2.63;2.07;;;;;;;18.37;68.12;99276.69;5493957;26;44070;-79
2024/04/14 06:22:54;;;;;;;2.53;2.33;;;;;;;18.49;67.19;99264.88;5494491;26;42035;-79
2024/04/14 06:25:23;;;;;;;2.33;2.13;;;;;;;18.82;66.72;99274.47;5493928;26;41524;-78
2024/04/14 06:27:51;;;;;;;2.17;1.97;;;;;;;18.87;65.85;99270.41;5492693;26;42797;-80
2024/04/14 06:30:20;;;;;;;3.10;2.40;;;;;;;18.99;65.12;99271.97;5493996;26;44081;-79
2024/04/14 06:32:46;;;;;;;2.60;2.17;;;;;;;19.20;64.86;99292.47;5492264;26;41076;-80
2024/04/14 06:35:15;;;;;;;2.20;1.83;;;;;;;19.10;64.46;99251.34;5494150;26;41000;-80
2024/04/14 06:37:45;;;;;;;2.87;2.33;;;;;;;19.44;64.35;99266.06;5493980;26;42948;-78
2024/04/14 06:40:14;;;;;;;2.30;2.10;;;;;;;19.67;63.97;99275.53;5493754;26;42712;-79
2024/04/14 06:42:40;;;;;;;2.53;2.30;;;;;;;19.89;63.35;99270.88;5492181;26;42285;-79
2024/04/14 06:45:11;;;;;;;2.73;2.43;;;;;;;20.06;62.82;99279.00;5492131;26;40204;-78
2024/04/14 06:47:37;;;;;;;2.40;2.20;;;;;;;20.22;62.10;99283.78;5492426;26;40315;-78
2024/04/14 06:50:08;;;;;;;2.43;2.23;;;;;;;20.39;61.37;99275.00;5493944;26;42661;-81
2024/04/14 06:52:35;;;;;;;2.23;2.10;;;;;;;20.79;60.92;99290.78;5492360;26;43204;-82
2024/04/14 06:55:11;;;;;;;2.87;2.30;;;;;;;20.97;60.30;99280.06;5492301;26;40279;-79
2024/04/14 06:57:37;;;;;;;3.47;1.60;;;;;;;21.15;59.74;99305.16;5494004;26;41994;-79
2024/04/14 07:00:08;;;;;;;2.07;1.87;;;;;;;21.25;59.90;99302.47;5492068;26;42818;-79
2024/04/14 07:02:34;;;;;;;1.90;1.70;;;;;;;21.32;58.94;99291.91;5493890;26;41335;-78
2024/04/14 07:05:03;;;;;;;2.30;2.10;;;;;;;21.55;58.67;99289.59;5461766;26;40592;-80
2024/04/14 07:07:30;;;;;;;3.33;2.10;;;;;;;21.83;57.96;99294.72;5494102;26;41893;-80
2024/04/14 07:09:59;;;;;;;1.80;1.70;;;;;;;22.03;56.53;99294.53;5492279;26;42711;-78
2024/04/14 07:12:28;;;;;;;2.40;1.87;;;;;;;22.24;55.97;99308.53;5491944;26;40935;-80
2024/04/14 07:14:57;;;;;;;1.80;1.60;;;;;;;22.14;55.62;99286.19;5493443;26;40154;-79
2024/04/14 07:17:24;;;;;;;2.60;1.80;;;;;;;22.33;55.71;99312.97;5491929;26;41739;-78
2024/04/14 07:19:53;;;;;;;2.57;1.60;;;;;;;22.39;55.91;99290.72;5493469;26;42868;-81
2024/04/14 07:22:20;;;;;;;2.50;1.70;;;;;;;22.81;54.89;99316.97;5493391;26;43048;-81
2024/04/14 07:24:49;;;;;;;2.00;1.73;;;;;;;23.03;55.03;99300.16;5491311;26;41252;-81
2024/04/14 07:27:16;;;;;;;2.13;1.80;;;;;;;23.32;53.85;99302.44;5493049;26;42863;-79
2024/04/14 07:29:47;;;;;;;2.10;1.53;;;;;;;23.59;53.92;99291.34;5460633;26;43548;-78
2024/04/14 07:32:15;;;;;;;1.53;1.40;;;;;;;23.87;52.49;99307.22;5493531;26;42236;-80
2024/04/14 07:34:44;;;;;;;1.93;1.60;;;;;;;24.01;51.65;99317.38;5493534;26;40214;-80
2024/04/14 07:37:11;;;;;;;1.40;1.30;;;;;;;24.13;50.95;99325.97;5493218;26;42044;-80
2024/04/14 07:39:40;;;;;;;1.63;1.53;;;;;;;24.26;50.61;99326.34;5493301;26;42855;-79
2024/04/14 07:42:08;;;;;;;2.23;1.60;;;;;;;24.45;51.19;99296.19;5492435;26;42407;-79
2024/04/14 07:44:38;;;;;;;3.27;1.70;;;;;;;24.91;50.89;99320.72;5493207;26;39903;-79
2024/04/14 07:47:07;;;;;;;5.00;2.00;;;;;;;25.10;49.12;99325.75;5493579;26;41524;-79
2024/04/14 07:49:38;;;;;;;2.60;1.80;;;;;;;25.23;47.57;99320.59;5492324;26;20779;-79
2024/04/14 07:52:05;;;;;;;1.53;1.40;;;;;;;25.44;46.95;99343.53;5492979;26;43249;-81
2024/04/14 07:54:34;;;;;;;3.70;1.67;;;;;;;25.59;46.55;99330.91;5492839;26;41126;-80
2024/04/14 07:57:02;;;;;;;1.77;1.50;;;;;;;25.82;44.48;99347.22;5490787;26;40350;-79
2024/04/14 07:59:32;;;;;;;2.23;1.70;;;;;;;26.11;43.70;99372.56;5490704;26;42595;-79
2024/04/14 08:01:58;;;;;;;1.53;1.40;;;;;;;26.39;43.49;99372.03;5491028;26;40670;-80
2024/04/14 08:04:30;;;;;;;1.20;1.10;;;;;;;26.46;44.43;99356.66;5492437;26;40112;-79
2024/04/14 08:06:56;;;;;;;1.90;1.40;;;;;;;26.74;42.75;99360.44;5491251;26;42359;-80
2024/04/14 08:09:26;;;;;;;1.80;1.70;;;;;;;27.11;42.25;99355.94;5490706;26;43525;-79
2024/04/14 08:11:52;;;;;;;1.90;1.33;;;;;;;27.69;41.15;99386.84;5492531;26;42164;-80
2024/04/14 08:14:21;;;;;;;1.87;1.30;;;;;;;27.73;40.02;99369.06;5490804;26;42411;-81
2024/04/14 08:16:48;;;;;;;1.83;1.57;;;;;;;28.16;40.24;99389.81;5491038;26;40724;-80
2024/04/14 08:19:17;;;;;;;1.37;1.27;;;;;;;28.74;40.18;99393.25;5492348;26;42655;-80
2024/04/14 08:21:46;;;;;;;1.70;1.60;;;;;;;29.10;38.63;99375.84;5488753;26;40962;-80
2024/04/14 08:24:16;;;;;;;1.30;1.20;;;;;;;29.35;37.52;99404.31;5490221;26;40025;-77
2024/04/14 08:26:42;;;;;;;1.65;1.30;;;;;;;29.52;37.01;99399.38;5492304;26;42685;-79
2024/04/14 08:29:11;;;;;;;1.67;1.58;;;;;;;29.67;36.53;99400.88;5492042;26;42859;-78
2024/04/14 08:31:39;;;;;;;2.40;1.45;;;;;;;29.88;36.59;99404.53;5490244;26;42395;-79
2024/04/14 08:34:08;;;;;;;2.38;1.48;;;;;;;30.03;35.94;99404.38;5493852;26;41269;-80
2024/04/14 08:36:34;;;;;;;1.35;1.20;;;;;;;30.38;35.24;99405.88;5491858;26;42762;-79
2024/04/14 08:39:06;;;;;;;1.67;1.30;;;;;;;30.62;34.12;99412.63;5490288;26;42285;-79
2024/04/14 08:41:34;;;;;;;1.95;1.42;;;;;;;30.75;34.37;99418.09;5459417;26;40899;-79
2024/04/14 08:44:03;;;;;;;1.77;1.38;;;;;;;31.04;34.53;99414.88;5491469;26;40156;-79
2024/04/14 08:46:31;;;;;;;1.38;1.27;;;;;;;31.75;33.90;99417.63;5492649;26;42926;-80
2024/04/14 08:49:01;;;;;;;1.45;1.20;;;;;;;32.68;33.10;99412.34;5490666;26;44043;-80
2024/04/14 08:51:29;;;;;;;1.58;1.10;;;;;;;33.66;30.72;99426.06;5490337;26;43303;-80
2024/04/14 08:53:59;;;;;;;2.92;1.27;;;;;;;34.63;29.25;99432.28;5492312;26;39914;-81
2024/04/14 08:56:30;;;;;;;1.50;1.38;;;;;;;35.38;28.39;99448.13;5492231;26;41537;-78
2024/04/14 08:59:06;;;;;;;0.98;0.90;;;;;;;36.12;26.92;99457.38;5490004;26;42818;-79
2024/04/14 09:01:33;;;;;;;0.90;0.90;;;;;;;36.49;25.66;99458.63;5491399;26;42409;-81
2024/04/14 09:04:06;;;;;;;1.48;0.93;;;;;;;36.51;26.10;99461.16;5489668;26;41453;-80
2024/04/14 09:06:33;;;;;;;1.25;0.75;;;;;;;36.34;26.45;99442.66;5491934;26;41934;-78
2024/04/14 09:09:02;;;;;;;1.00;0.90;;;;;;;36.35;25.94;99458.13;5459018;26;42475;-80
2024/04/14 09:11:31;;;;;;;0.77;0.68;;;;;;;36.40;24.82;99465.66;5491435;26;43387;-80
2024/04/14 09:14:00;;;;;;;0.77;0.77;;;;;;;36.16;24.79;99447.53;5489723;26;39105;-78
2024/04/14 09:16:27;;;;;;;0.85;0.85;;;;;;;36.33;26.15;99459.47;5489321;26;40329;-80
2024/04/14 09:18:56;;;;;;;1.27;0.90;;;;;;;36.26;25.50;99459.59;5489208;26;42658;-80
2024/04/14 09:21:24;;;;;;;1.35;0.75;;;;;;;35.87;24.45;99466.81;5489321;26;42503;-79
2024/04/14 09:23:53;;;;;;;1.83;0.90;;;;;;;35.39;25.38;99466.31;5491339;26;41083;-79
2024/04/14 09:26:21;;;;;;;1.15;1.00;;;;;;;34.97;25.38;99436.19;5489477;26;40824;-80
2024/04/14 09:29:03;;;;;;;1.42;0.90;;;;;;;34.99;26.56;99453.25;5470779;26;43136;-79
2024/04/14 09:31:29;;;;;;;1.50;1.17;;;;;;;34.99;26.34;99425.72;5453867;26;42217;-79
2024/04/14 09:33:58;;;;;;;1.33;1.20;;;;;;;35.15;25.00;99462.72;5453329;26;40084;-79
2024/04/14 09:36:26;;;;;;;1.42;0.90;;;;;;;35.02;25.36;99461.06;5456208;26;41792;-79
2024/04/14 09:38:56;;;;;;;1.25;0.73;;;;;;;34.91;26.42;99423.34;5475132;26;44545;-81
2024/04/14 09:41:23;;;;;;;1.05;0.95;;;;;;;35.17;25.87;99428.38;5462186;26;43948;-81
2024/04/14 09:43:58;;;;;;;1.20;1.00;;;;;;;34.90;25.85;99450.03;5493468;26;40236;-80
2024/04/14 09:46:27;;;;;;;1.80;1.38;;;;;;;34.43;25.75;99432.63;5494273;26;41565;-80
2024/04/14 09:48:56;;;;;;;2.28;1.00;;;;;;;34.23;26.32;99443.06;5493713;26;43862;-80
2024/04/14 09:51:26;;;;;;;0.85;0.82;;;;;;;33.96;26.43;99422.53;5493803;26;43454;-79
2024/04/14 09:53:58;;;;;;;1.35;1.20;;;;;;;33.79;27.23;99425.94;5491867;26;40823;-81
2024/04/14 09:56:24;;;;;;;1.38;1.25;;;;;;;33.45;26.78;99416.41;5494182;26;41904;-79
2024/04/14 09:58:56;;;;;;;0.98;0.93;;;;;;;33.28;27.15;99403.53;5492204;26;42537;-80
2024/04/14 10:01:30;;;;;;;1.13;0.95;;;;;;;33.37;28.15;99427.72;5494399;26;41994;-79
2024/04/14 10:04:02;;;;;;;0.93;0.93;;;;;;;33.30;28.05;99417.88;5494058;26;40072;-80
2024/04/14 10:06:31;;;;;;;1.65;1.10;;;;;;;33.29;27.68;99402.47;5494681;26;42766;-80
2024/04/14 10:09:00;;;;;;;1.30;1.20;;;;;;;33.50;27.96;99415.75;5492133;26;43484;-81
2024/04/14 10:11:27;;;;;;;1.73;1.33;;;;;;;33.63;28.36;99412.78;5494399;26;42044;-79
2024/04/14 10:13:59;;;;;;;2.35;1.02;;;;;;;33.53;28.43;99409.75;5493370;26;39892;-80
2024/04/14 10:16:26;;;;;;;0.95;0.93;;;;;;;33.55;28.33;99415.88;5491866;26;40303;-78
2024/04/14 10:18:55;;;;;;;1.55;1.13;;;;;;;33.44;27.53;99411.16;5460848;26;41425;-80
2024/04/14 10:21:22;;;;;;;1.70;1.00;;;;;;;33.28;27.77;99384.31;5492331;26;40778;-79
2024/04/14 10:23:54;;;;;;;1.20;1.10;;;;;;;33.43;27.98;99385.59;5463158;26;40084;-79
2024/04/14 10:26:21;;;;;;;1.08;0.95;;;;;;;33.73;28.15;99404.88;5494650;26;41839;-79
2024/04/14 10:28:52;;;;;;;2.65;1.20;;;;;;;34.11;26.94;99400.97;5492179;26;43716;-79
2024/04/14 10:31:29;;;;;;;1.10;1.10;;;;;;;34.32;25.96;99399.59;5494906;26;42440;-80
2024/04/14 10:34:07;;;;;;;2.58;1.00;;;;;;;34.39;25.80;99406.66;5492781;26;41765;-81
2024/04/14 10:36:35;;;;;;;1.05;0.90;;;;;;;34.54;26.10;99400.69;5494958;26;42262;-80
2024/04/14 10:39:09;;;;;;;1.27;0.90;;;;;;;34.67;26.75;99378.47;5491236;26;44112;-79
2024/04/14 10:41:35;;;;;;;1.95;0.90;;;;;;;34.86;25.38;99392.97;5493201;26;42383;-80
2024/04/14 10:44:04;;;;;;;1.25;1.00;;;;;;;35.44;24.65;99401.16;5491840;26;41110;-81
2024/04/14 10:46:33;;;;;;;1.58;0.80;;;;;;;35.97;24.71;99406.38;5490917;26;42765;-79
2024/04/14 10:49:03;;;;;;;2.80;1.00;;;;;;;36.10;23.71;99418.19;5460735;26;41611;-80
2024/04/14 10:51:29;;;;;;;1.75;0.82;;;;;;;35.94;23.97;99433.59;5493327;26;42157;-80
2024/04/14 10:53:59;;;;;;;1.38;1.00;;;;;;;35.83;23.64;99405.00;5478252;26;39005;-80
2024/04/14 10:56:26;;;;;;;0.98;0.93;;;;;;;35.97;23.70;99424.84;5483331;26;41631;-79
2024/04/14 10:58:55;;;;;;;2.55;1.00;;;;;;;35.95;23.71;99399.44;5456079;26;43686;-80
2024/04/14 11:01:22;;;;;;;1.88;1.23;;;;;;;35.79;23.65;99420.38;5477843;26;42220;-80
2024/04/14 11:03:54;;;;;;;2.25;0.82;;;;;;;35.71;23.90;99389.56;5476047;26;40085;-80
2024/04/14 11:06:21;;;;;;;1.10;1.00;;;;;;;35.95;23.81;99402.19;5432440;26;42094;-79
2024/04/14 11:08:51;;;;;;;1.02;0.90;;;;;;;35.80;23.53;99391.72;5490040;26;43725;-80
2024/04/14 11:11:17;;;;;;;0.98;0.98;;;;;;;35.96;23.50;99409.38;5469814;26;41912;-80
2024/04/14 11:13:46;;;;;;;0.80;0.80;;;;;;;36.23;23.27;99404.09;5484856;26;40182;-79
2024/04/14 11:16:15;;;;;;;0.80;0.77;;;;;;;36.38;22.36;99395.25;5461970;26;42388;-81
2024/04/14 11:18:46;;;;;;;1.10;0.70;;;;;;;36.85;22.84;99396.59;5490701;26;42794;-79
2024/04/14 11:21:20;;;;;;;0.80;0.70;;;;;;;37.04;22.93;99388.84;5471063;26;41962;-82
2024/04/14 11:23:51;;;;;;;1.85;0.73;;;;;;;37.27;22.88;99385.03;5485591;26;41258;-80
2024/04/14 11:26:18;;;;;;;0.80;0.80;;;;;;;37.61;22.92;99371.91;5463795;26;41525;-80
2024/04/14 11:28:48;;;;;;;1.08;0.70;;;;;;;37.58;22.23;99397.31;5490673;26;43874;-81
2024/04/14 11:31:14;;;;;;;1.45;0.82;;;;;;;37.44;22.06;99390.53;5468740;26;44454;-79
2024/04/14 11:33:46;;;;;;;1.05;0.57;;;;;;;37.50;22.45;99382.00;5484255;26;40815;-80
2024/04/14 11:36:12;;;;;;;1.00;0.70;;;;;;;37.82;20.88;99395.97;5486477;26;41931;-79
2024/04/14 11:38:44;;;;;;;0.75;0.70;;;;;;;38.09;21.84;99382.97;5465802;26;41947;-78
2024/04/14 11:41:10;;;;;;;1.10;0.80;;;;;;;38.06;21.49;99366.91;5481522;26;42656;-79